createdAt,value
2023-10-27T00:02:28.417Z,94126.47
2023-10-27T00:05:31.818Z,94122.03
2023-10-27T00:08:35.065Z,94130.03
2023-10-27T00:11:38.214Z,94116.72
2023-10-27T00:14:42.715Z,94116.41
2023-10-27T00:17:46.014Z,94119.84
2023-10-27T00:20:49.127Z,94125.16
2023-10-27T00:23:52.401Z,94120.50
2023-10-27T00:26:55.497Z,94121.72
2023-10-27T00:29:59.958Z,94114.06
2023-10-27T00:33:03.161Z,94095.75
2023-10-27T00:36:07.574Z,94101.06
2023-10-27T00:39:10.720Z,94109.06
2023-10-27T00:42:13.854Z,94103.75
2023-10-27T00:45:18.356Z,94109.84
2023-10-27T00:48:23.078Z,94107.50
2023-10-27T00:51:26.165Z,94098.41
2023-10-27T00:54:30.048Z,94101.41
2023-10-27T00:57:34.491Z,94104.84
2023-10-27T01:00:40.366Z,94098.75
2023-10-27T01:03:44.188Z,94096.88
2023-10-27T01:06:47.627Z,94096.88
2023-10-27T01:09:50.756Z,94112.84
2023-10-27T01:12:53.813Z,94117.38
2023-10-27T01:15:58.290Z,94123.81
2023-10-27T01:19:01.732Z,94116.91
2023-10-27T01:22:05.297Z,94115.81
2023-10-27T01:25:10.483Z,94121.13
2023-10-27T01:28:13.699Z,94127.25
2023-10-27T01:31:16.843Z,94139.31
2023-10-27T01:34:20.665Z,94137.88
2023-10-27T01:37:23.859Z,94132.13
2023-10-27T01:40:28.377Z,94134.78
2023-10-27T01:43:31.529Z,94129.31
2023-10-27T01:46:34.779Z,94128.09
2023-10-27T01:49:37.947Z,94136.84
2023-10-27T01:52:42.409Z,94141.41
2023-10-27T01:55:46.875Z,94134.03
2023-10-27T01:58:50.074Z,94126.81
2023-10-27T02:01:53.125Z,94127.59
2023-10-27T02:04:56.335Z,94124.94
2023-10-27T02:08:00.039Z,94118.84
2023-10-27T02:11:04.918Z,94111.50
2023-10-27T02:14:08.069Z,94116.50
2023-10-27T02:17:12.588Z,94110.53
2023-10-27T02:20:15.702Z,94105.88
2023-10-27T02:23:18.797Z,94116.19
2023-10-27T02:26:23.372Z,94113.84
2023-10-27T02:29:26.613Z,94114.63
2023-10-27T02:32:29.721Z,94107.75
2023-10-27T02:35:32.870Z,94089.91
2023-10-27T02:38:35.929Z,94085.03
2023-10-27T02:41:40.636Z,94083.81
2023-10-27T02:44:44.035Z,94088.78
2023-10-27T02:47:47.393Z,94082.69
2023-10-27T02:50:50.737Z,94091.47
2023-10-27T02:53:53.809Z,94085.69
2023-10-27T02:56:58.428Z,94092.88
2023-10-27T03:00:01.641Z,94095.41
2023-10-27T03:03:04.765Z,94102.31
2023-10-27T03:06:08.219Z,94097.09
2023-10-27T03:09:11.375Z,94106.19
2023-10-27T03:12:17.835Z,94096.66
2023-10-27T03:15:21.003Z,94105.41
2023-10-27T03:18:24.680Z,94085.19
2023-10-27T03:21:27.818Z,94087.06
2023-10-27T03:24:30.959Z,94090.66
2023-10-27T03:27:36.162Z,94084.88
2023-10-27T03:30:39.443Z,94101.84
2023-10-27T03:33:42.566Z,94106.25
2023-10-27T03:36:45.700Z,94092.03
2023-10-27T03:39:48.893Z,94088.28
2023-10-27T03:42:53.463Z,94091.56
2023-10-27T03:45:56.595Z,94085.59
2023-10-27T03:48:59.768Z,94083.66
2023-10-27T03:52:02.920Z,94079.06
2023-10-27T03:55:08.807Z,94071.47
2023-10-27T03:58:16.599Z,94076.16
2023-10-27T04:01:20.095Z,94066.88
2023-10-27T04:04:23.385Z,94070.13
2023-10-27T04:07:26.665Z,94058.50
2023-10-27T04:10:33.241Z,94033.31
2023-10-27T04:13:37.787Z,94036.44
2023-10-27T04:16:40.960Z,94028.13
2023-10-27T04:19:45.714Z,94023.00
2023-10-27T04:22:48.990Z,94019.63
2023-10-27T04:25:52.686Z,94013.84
2023-10-27T04:28:57.190Z,94011.06
2023-10-27T04:32:00.330Z,93996.06
2023-10-27T04:35:03.542Z,93995.63
2023-10-27T04:38:06.625Z,93994.69
2023-10-27T04:41:10.735Z,93995.34
2023-10-27T04:44:15.129Z,94005.34
2023-10-27T04:47:18.492Z,94006.44
2023-10-27T04:50:21.675Z,94008.00
2023-10-27T04:53:24.864Z,94019.63
2023-10-27T04:56:27.988Z,94016.50
2023-10-27T04:59:32.492Z,94020.28
2023-10-27T05:02:35.555Z,94020.28
2023-10-27T05:05:38.682Z,94006.19
2023-10-27T05:08:41.769Z,94006.53
2023-10-27T05:11:46.851Z,94005.09
2023-10-27T05:14:51.348Z,94008.06
2023-10-27T05:17:54.650Z,94015.28
2023-10-27T05:20:57.869Z,94006.53
2023-10-27T05:24:02.460Z,94003.53
2023-10-27T05:27:05.849Z,94005.41
2023-10-27T05:30:11.366Z,94003.53
2023-10-27T05:33:14.561Z,94003.22
2023-10-27T05:36:17.637Z,94001.97
2023-10-27T05:39:21.623Z,94005.09
2023-10-27T05:42:24.816Z,94005.25
2023-10-27T05:45:29.279Z,93996.00
2023-10-27T05:48:32.444Z,93999.00
2023-10-27T05:51:36.083Z,94014.31
2023-10-27T05:54:39.248Z,94008.19
2023-10-27T05:57:45.538Z,94000.22
2023-10-27T06:00:50.888Z,94013.53
2023-10-27T06:03:55.218Z,94016.31
2023-10-27T06:06:58.331Z,94010.81
2023-10-27T06:10:01.609Z,94023.34
2023-10-27T06:13:05.101Z,94033.00
2023-10-27T06:16:10.106Z,94045.97
2023-10-27T06:19:13.266Z,94045.19
2023-10-27T06:22:16.620Z,94045.19
2023-10-27T06:25:20.271Z,94056.63
2023-10-27T06:28:23.559Z,94059.28
2023-10-27T06:31:28.595Z,94047.06
2023-10-27T06:34:31.997Z,94061.16
2023-10-27T06:37:36.477Z,94057.41
2023-10-27T06:40:39.667Z,94051.28
2023-10-27T06:43:42.709Z,94054.72
2023-10-27T06:46:47.205Z,94054.72
2023-10-27T06:49:50.346Z,94050.63
2023-10-27T06:52:53.501Z,94044.09
2023-10-27T06:55:56.529Z,94037.66
2023-10-27T06:59:00.040Z,94036.88
2023-10-27T07:02:04.913Z,94031.25
2023-10-27T07:05:10.276Z,94041.56
2023-10-27T07:08:13.487Z,94046.38
2023-10-27T07:11:16.650Z,94054.66
2023-10-27T07:14:19.694Z,94044.50
2023-10-27T07:17:24.361Z,94032.22
2023-10-27T07:20:27.671Z,94033.88
2023-10-27T07:23:31.931Z,94036.09
2023-10-27T07:26:34.995Z,94030.44
2023-10-27T07:29:38.123Z,94025.56
2023-10-27T07:32:42.653Z,94030.13
2023-10-27T07:35:47.679Z,94026.34
2023-10-27T07:38:51.586Z,94021.03
2023-10-27T07:41:54.668Z,94027.91
2023-10-27T07:45:00.637Z,94050.78
2023-10-27T07:48:06.751Z,94060.66
2023-10-27T07:51:10.015Z,94052.97
2023-10-27T07:54:13.146Z,94046.34
2023-10-27T07:57:16.255Z,94036.84
2023-10-27T08:00:19.824Z,94049.84
2023-10-27T08:03:25.655Z,94056.41
2023-10-27T08:06:29.400Z,94059.06
2023-10-27T08:09:32.829Z,94037.00
2023-10-27T08:12:36.065Z,94026.78
2023-10-27T08:15:39.404Z,94025.78
2023-10-27T08:18:44.165Z,94006.16
2023-10-27T08:21:49.934Z,93999.56
2023-10-27T08:24:53.057Z,94038.19
2023-10-27T08:27:56.206Z,93994.13
2023-10-27T08:30:59.323Z,93980.16
2023-10-27T08:34:05.437Z,94000.69
2023-10-27T08:37:08.547Z,94007.44
2023-10-27T08:40:13.737Z,94013.88
2023-10-27T08:43:17.340Z,94001.69
2023-10-27T08:46:20.668Z,94008.91
2023-10-27T08:49:25.310Z,94024.09
2023-10-27T08:52:29.204Z,94018.31
2023-10-27T08:55:33.457Z,94015.66
2023-10-27T08:58:37.139Z,94008.13
2023-10-27T09:01:40.264Z,94015.00
2023-10-27T09:04:46.039Z,94016.09
2023-10-27T09:07:49.550Z,94000.91
2023-10-27T09:10:53.089Z,94001.25
2023-10-27T09:13:56.221Z,93991.03
2023-10-27T09:17:07.832Z,93995.69
2023-10-27T09:20:13.458Z,94003.69
2023-10-27T09:23:16.667Z,93981.25
2023-10-27T09:26:19.713Z,93978.75
2023-10-27T09:29:23.572Z,93959.75
2023-10-27T09:32:27.668Z,93955.22
2023-10-27T09:35:32.257Z,93954.44
2023-10-27T09:38:35.329Z,93938.44
2023-10-27T09:41:42.303Z,93941.44
2023-10-27T09:44:53.252Z,93920.91
2023-10-27T09:48:03.509Z,93922.47
2023-10-27T09:51:13.182Z,93916.69
2023-10-27T09:54:16.448Z,93923.56
2023-10-27T09:57:19.878Z,93927.00
2023-10-27T10:00:26.212Z,93904.16
2023-10-27T10:03:29.826Z,93910.91
2023-10-27T10:06:48.666Z,93901.00
2023-10-27T10:09:54.104Z,93904.00
2023-10-27T10:13:09.210Z,93887.25
2023-10-27T10:16:12.632Z,93891.81
2023-10-27T10:19:51.383Z,93905.91
2023-10-27T10:22:58.875Z,93902.47
2023-10-27T10:26:02.869Z,93912.66
2023-10-27T10:29:30.891Z,93912.34
2023-10-27T10:32:37.701Z,93916.13
2023-10-27T10:35:41.206Z,93930.97
2023-10-27T10:38:46.989Z,93919.56
2023-10-27T10:42:06.165Z,93916.88
2023-10-27T10:45:09.459Z,93907.00
2023-10-27T10:48:12.559Z,93907.78
2023-10-27T10:51:20.380Z,93903.56
2023-10-27T10:54:29.722Z,93913.88
2023-10-27T10:57:32.790Z,93923.78
2023-10-27T11:00:36.560Z,93916.88
2023-10-27T11:03:39.626Z,93898.56
2023-10-27T11:06:42.712Z,93900.13
2023-10-27T11:09:47.211Z,93891.38
2023-10-27T11:12:50.403Z,93910.78
2023-10-27T11:15:53.609Z,93904.69
2023-10-27T11:18:58.841Z,93875.38
2023-10-27T11:22:01.974Z,93873.81
2023-10-27T11:25:07.478Z,93876.16
2023-10-27T11:28:23.336Z,93872.72
2023-10-27T11:31:28.558Z,93873.50
2023-10-27T11:34:35.277Z,93859.41
2023-10-27T11:37:39.909Z,93853.28
2023-10-27T11:40:44.441Z,93844.53
2023-10-27T11:43:48.191Z,93840.75
2023-10-27T11:46:53.104Z,93836.53
2023-10-27T11:49:56.257Z,93830.09
2023-10-27T11:52:59.740Z,93834.66
2023-10-27T11:56:07.721Z,93820.56
2023-10-27T11:59:11.709Z,93824.78
2023-10-27T12:02:17.113Z,93819.44
2023-10-27T12:05:20.293Z,93808.78
2023-10-27T12:08:23.454Z,93828.22
2023-10-27T12:11:29.151Z,93825.56
2023-10-27T12:14:32.241Z,93819.44
2023-10-27T12:17:35.758Z,93814.91
2023-10-27T12:20:40.825Z,93800.03
2023-10-27T12:23:44.338Z,93794.38
2023-10-27T12:26:48.805Z,93783.72
2023-10-27T12:29:51.905Z,93776.81
2023-10-27T12:32:55.419Z,93769.63
2023-10-27T12:35:58.482Z,93764.28
2023-10-27T12:39:03.316Z,93760.84
2023-10-27T12:42:09.280Z,93780.28
2023-10-27T12:45:14.293Z,93768.84
2023-10-27T12:48:18.001Z,93786.72
2023-10-27T12:51:21.091Z,93790.94
2023-10-27T12:54:24.135Z,93779.50
2023-10-27T12:57:28.587Z,93798.91
2023-10-27T13:00:33.153Z,93782.94
2023-10-27T13:03:36.444Z,93805.00
2023-10-27T13:06:39.946Z,93820.22
2023-10-27T13:09:43.186Z,93816.78
2023-10-27T13:12:47.816Z,93808.00
2023-10-27T13:15:51.078Z,93801.91
2023-10-27T13:18:54.241Z,93798.47
2023-10-27T13:21:57.424Z,93796.59
2023-10-27T13:25:00.730Z,93811.34
2023-10-27T13:28:05.406Z,93815.13
2023-10-27T13:31:08.705Z,93794.94
2023-10-27T13:34:14.778Z,93804.81
2023-10-27T13:37:18.507Z,93809.38
2023-10-27T13:40:21.695Z,93802.16
2023-10-27T13:43:26.158Z,93799.81
2023-10-27T13:46:29.277Z,93803.25
2023-10-27T13:49:33.772Z,93792.59
2023-10-27T13:52:36.980Z,93796.38
2023-10-27T13:55:45.480Z,93776.19
2023-10-27T13:58:51.165Z,93747.25
2023-10-27T14:01:54.524Z,93762.41
2023-10-27T14:04:57.649Z,93762.41
2023-10-27T14:08:00.840Z,93734.22
2023-10-27T14:11:06.995Z,93759.75
2023-10-27T14:14:13.324Z,93731.88
2023-10-27T14:17:16.383Z,93739.09
2023-10-27T14:20:21.698Z,93717.78
2023-10-27T14:23:24.863Z,93700.25
2023-10-27T14:26:28.011Z,93717.00
2023-10-27T14:29:33.110Z,93701.81
2023-10-27T14:32:38.131Z,93717.00
2023-10-27T14:35:41.240Z,93665.63
2023-10-27T14:38:45.828Z,93723.88
2023-10-27T14:41:48.970Z,93677.84
2023-10-27T14:44:55.173Z,93688.97
2023-10-27T14:47:59.368Z,93726.72
2023-10-27T14:51:04.028Z,93713.38
2023-10-27T14:54:08.504Z,93686.75
2023-10-27T14:57:11.606Z,93746.13
2023-10-27T15:00:17.149Z,93717.94
2023-10-27T15:03:20.341Z,93748.00
2023-10-27T15:06:23.519Z,93701.16
2023-10-27T15:09:26.667Z,93726.25
2023-10-27T15:12:29.798Z,93736.41
2023-10-27T15:15:34.322Z,93723.09
2023-10-27T15:18:37.418Z,93727.34
2023-10-27T15:21:40.613Z,93724.69
2023-10-27T15:24:43.777Z,93739.56
2023-10-27T15:27:47.000Z,93715.91
2023-10-27T15:30:59.803Z,93683.94
2023-10-27T15:34:04.145Z,93743.78
2023-10-27T15:37:07.387Z,93728.59
2023-10-27T15:40:14.861Z,93723.56
2023-10-27T15:43:17.898Z,93716.69
2023-10-27T15:46:22.312Z,93696.16
2023-10-27T15:49:25.378Z,93717.69
2023-10-27T15:52:28.476Z,93742.97
2023-10-27T15:55:31.606Z,93697.69
2023-10-27T15:58:35.060Z,93719.44
2023-10-27T16:01:39.599Z,93726.31
2023-10-27T16:04:42.814Z,93737.31
2023-10-27T16:07:45.991Z,93748.53
2023-10-27T16:10:49.117Z,93765.88
2023-10-27T16:13:52.483Z,93736.34
2023-10-27T16:16:57.134Z,93722.22
2023-10-27T16:20:00.382Z,93729.13
2023-10-27T16:23:04.321Z,93728.34
2023-10-27T16:26:07.388Z,93728.44
2023-10-27T16:29:10.421Z,93749.97
2023-10-27T16:32:15.148Z,93753.50
2023-10-27T16:35:18.713Z,93749.91
2023-10-27T16:38:21.726Z,93768.19
2023-10-27T16:41:24.840Z,93748.66
2023-10-27T16:44:27.942Z,93759.84
2023-10-27T16:47:32.533Z,93790.78
2023-10-27T16:50:35.604Z,93755.31
2023-10-27T16:53:39.232Z,93767.06
2023-10-27T16:56:43.240Z,93763.72
2023-10-27T16:59:47.830Z,93742.00
2023-10-27T17:02:52.391Z,93789.38
2023-10-27T17:05:55.740Z,93739.31
2023-10-27T17:08:58.795Z,93771.75
2023-10-27T17:12:02.135Z,93776.03
2023-10-27T17:15:05.861Z,93775.81
2023-10-27T17:18:10.395Z,93749.59
2023-10-27T17:21:14.795Z,93752.59
2023-10-27T17:24:19.261Z,93745.38
2023-10-27T17:27:23.263Z,93737.81
2023-10-27T17:30:26.461Z,93741.69
2023-10-27T17:33:32.124Z,93772.13
2023-10-27T17:36:39.210Z,93788.44
2023-10-27T17:39:42.578Z,93776.25
2023-10-27T17:42:46.354Z,93765.03
2023-10-27T17:45:49.408Z,93706.44
2023-10-27T17:48:53.900Z,93714.88
2023-10-27T17:51:56.988Z,93732.50
2023-10-27T17:55:00.355Z,93787.34
2023-10-27T17:58:03.582Z,93720.63
2023-10-27T18:01:08.481Z,93764.03
2023-10-27T18:04:13.155Z,93739.28
2023-10-27T18:07:16.310Z,93720.63
2023-10-27T18:10:19.577Z,93771.69
2023-10-27T18:13:22.659Z,93758.78
2023-10-27T18:16:25.752Z,93775.91
2023-10-27T18:19:30.297Z,93771.81
2023-10-27T18:22:33.463Z,93759.03
2023-10-27T18:25:36.878Z,93788.50
2023-10-27T18:28:40.252Z,93757.41
2023-10-27T18:31:44.022Z,93759.81
2023-10-27T18:34:49.067Z,93737.81
2023-10-27T18:37:52.650Z,93748.38
2023-10-27T18:40:59.026Z,93794.13
2023-10-27T18:44:02.330Z,93765.47
2023-10-27T18:47:05.911Z,93787.22
2023-10-27T18:50:11.113Z,93781.13
2023-10-27T18:53:14.488Z,93763.16
2023-10-27T18:56:18.174Z,93776.47
2023-10-27T18:59:22.445Z,93774.59
2023-10-27T19:02:25.511Z,93771.69
2023-10-27T19:05:30.197Z,93768.69
2023-10-27T19:08:34.184Z,93750.81
2023-10-27T19:11:37.261Z,93764.13
2023-10-27T19:14:40.308Z,93778.56
2023-10-27T19:17:44.975Z,93769.47
2023-10-27T19:20:49.697Z,93806.44
2023-10-27T19:23:54.832Z,93755.03
2023-10-27T19:26:57.884Z,93797.00
2023-10-27T19:30:03.013Z,93788.56
2023-10-27T19:33:06.246Z,93819.88
2023-10-27T19:36:12.133Z,93791.34
2023-10-27T19:39:18.449Z,93805.00
2023-10-27T19:42:22.822Z,93806.22
2023-10-27T19:45:25.907Z,93845.06
2023-10-27T19:48:30.091Z,93791.44
2023-10-27T19:51:34.714Z,93813.09
2023-10-27T19:54:38.194Z,93837.16
2023-10-27T19:57:41.263Z,93788.00
2023-10-27T20:00:44.416Z,93826.06
2023-10-27T20:03:49.103Z,93836.72
2023-10-27T20:06:53.770Z,93856.94
2023-10-27T20:09:57.021Z,93836.72
2023-10-27T20:13:00.522Z,93851.59
2023-10-27T20:16:04.070Z,93835.63
2023-10-27T20:19:07.489Z,93852.38
2023-10-27T20:22:11.971Z,93872.59
2023-10-27T20:25:15.436Z,93892.78
2023-10-27T20:28:18.531Z,93892.69
2023-10-27T20:31:21.622Z,93892.34
2023-10-27T20:34:25.989Z,93902.69
2023-10-27T20:37:30.504Z,93907.56
2023-10-27T20:40:33.622Z,93897.69
2023-10-27T20:43:36.818Z,93909.13
2023-10-27T20:46:40.626Z,93916.25
2023-10-27T20:49:44.590Z,93934.44
2023-10-27T20:52:49.505Z,93948.56
2023-10-27T20:55:52.797Z,93942.00
2023-10-27T20:58:55.965Z,93941.22
2023-10-27T21:01:59.092Z,93948.44
2023-10-27T21:05:02.383Z,93949.53
2023-10-27T21:08:07.010Z,93953.31
2023-10-27T21:11:10.660Z,93971.19
2023-10-27T21:14:13.896Z,93971.50
2023-10-27T21:17:17.870Z,93976.06
2023-10-27T21:20:22.158Z,93975.28
2023-10-27T21:23:27.220Z,93977.19
2023-10-27T21:26:30.256Z,93967.28
2023-10-27T21:29:33.489Z,93992.38
2023-10-27T21:32:37.340Z,93997.72
2023-10-27T21:35:40.528Z,93991.94
2023-10-27T21:38:44.925Z,94002.59
2023-10-27T21:41:48.005Z,93991.94
2023-10-27T21:44:51.272Z,93977.84
2023-10-27T21:47:55.293Z,93987.72
2023-10-27T21:51:05.254Z,93989.63
2023-10-27T21:54:09.870Z,93994.94
2023-10-27T21:57:13.013Z,94000.28
2023-10-27T22:00:29.930Z,94010.94
2023-10-27T22:03:37.141Z,94001.38
2023-10-27T22:06:40.428Z,94015.81
2023-10-27T22:09:45.942Z,94016.16
2023-10-27T22:12:49.594Z,94011.59
2023-10-27T22:15:53.245Z,94014.25
2023-10-27T22:18:56.724Z,94006.94
2023-10-27T22:22:00.197Z,94017.59
2023-10-27T22:25:04.748Z,94017.25
2023-10-27T22:28:16.388Z,94014.59
2023-10-27T22:31:21.662Z,94009.25
2023-10-27T22:34:24.791Z,94003.00
2023-10-27T22:37:27.934Z,94014.44
2023-10-27T22:40:32.588Z,94009.44
2023-10-27T22:43:35.728Z,94016.66
2023-10-27T22:46:38.930Z,94022.66
2023-10-27T22:49:42.100Z,94021.00
2023-10-27T22:52:45.300Z,94019.44
2023-10-27T22:55:49.843Z,94012.78
2023-10-27T22:58:53.311Z,94004.78
2023-10-27T23:01:56.461Z,94031.88
2023-10-27T23:05:00.039Z,94023.25
2023-10-27T23:08:05.795Z,94045.34
2023-10-27T23:11:11.964Z,94046.88
2023-10-27T23:14:15.031Z,94044.22
2023-10-27T23:17:18.296Z,94050.34
2023-10-27T23:20:22.924Z,94041.56
2023-10-27T23:23:26.432Z,94033.91
2023-10-27T23:26:31.510Z,94048.00
2023-10-27T23:29:34.903Z,94057.06
2023-10-27T23:32:38.152Z,94059.75
2023-10-27T23:35:44.017Z,94067.72
2023-10-27T23:38:47.324Z,94064.28
2023-10-27T23:41:51.808Z,94052.06
2023-10-27T23:44:56.147Z,94059.28
2023-10-27T23:47:59.251Z,94052.41
2023-10-27T23:51:03.627Z,94053.50
2023-10-27T23:54:06.950Z,94077.50
2023-10-27T23:57:11.364Z,94075.50
